Time;durP1;ratioP1;P1;durP2;ratioP2;P2;SDS_P1;SDS_P2;PMS_P1;PMS_P2;Temp;Humidity;BMP_temperature;BMP_pressure;BME280_temperature;BME280_humidity;BME280_pressure;Samples;Min_cycle;Max_cycle;Signal;HPM_P1;HPM_P2
2022/11/03 00:01:43;;;;;;;64.32;39.92;;;18.30;97.10;;;;;;4989724;28;20255;-77
2022/11/03 00:04:11;;;;;;;57.20;36.03;;;18.20;97.00;;;;;;4992192;28;20030;-77
2022/11/03 00:06:38;;;;;;;53.30;37.08;;;18.20;97.00;;;;;;4995734;28;20049;-76
2022/11/03 00:09:06;;;;;;;53.90;36.28;;;18.20;96.90;;;;;;4993175;28;20546;-76
2022/11/03 00:11:33;;;;;;;53.60;35.50;;;18.30;96.90;;;;;;4995278;28;20129;-76
2022/11/03 00:13:59;;;;;;;57.33;36.28;;;18.30;96.90;;;;;;4993116;28;20141;-76
2022/11/03 00:16:25;;;;;;;48.53;33.78;;;18.30;96.80;;;;;;4996159;28;20424;-76
2022/11/03 00:18:51;;;;;;;51.00;34.95;;;18.30;96.70;;;;;;4994304;28;20041;-76
2022/11/03 00:21:17;;;;;;;52.72;35.15;;;18.30;96.70;;;;;;4995745;28;20034;-76
2022/11/03 00:23:44;;;;;;;49.00;34.35;;;18.40;96.70;;;;;;4988652;28;20025;-76
2022/11/03 00:26:16;;;;;;;51.20;34.45;;;18.40;96.60;;;;;;4994309;28;20339;-75
2022/11/03 00:28:44;;;;;;;50.20;32.58;;;18.40;96.60;;;;;;4991304;28;20479;-76
2022/11/03 00:31:12;;;;;;;51.50;34.38;;;18.40;96.50;;;;;;4995874;28;20030;-76
2022/11/03 00:33:39;;;;;;;50.75;34.92;;;18.40;96.60;;;;;;4994142;28;20112;-76
2022/11/03 00:36:05;;;;;;;55.80;35.47;;;18.40;96.60;;;;;;4994809;28;20038;-76
2022/11/03 00:38:32;;;;;;;51.90;34.03;;;18.40;96.60;;;;;;4994555;28;20050;-76
2022/11/03 00:41:00;;;;;;;55.35;32.92;;;18.40;96.50;;;;;;4979523;28;20463;-76
2022/11/03 00:43:27;;;;;;;48.33;32.88;;;18.30;96.50;;;;;;4995210;28;20026;-76
2022/11/03 00:45:53;;;;;;;54.97;34.63;;;18.30;96.50;;;;;;4995185;28;20015;-77
2022/11/03 00:48:29;;;;;;;52.35;34.85;;;18.20;96.60;;;;;;4995011;28;20030;-75
2022/11/03 00:51:03;;;;;;;59.97;35.70;;;18.20;96.70;;;;;;5000088;28;20034;-77
2022/11/03 00:53:31;;;;;;;52.08;35.13;;;18.30;96.70;;;;;;4994897;28;20043;-77
2022/11/03 00:55:57;;;;;;;51.13;35.72;;;18.20;96.60;;;;;;4994863;28;20034;-77
2022/11/03 00:58:22;;;;;;;49.97;34.45;;;18.20;96.60;;;;;;4993739;28;20045;-77
2022/11/03 01:00:48;;;;;;;49.60;33.88;;;18.20;96.60;;;;;;4994982;28;20026;-77
2022/11/03 01:03:14;;;;;;;62.45;37.42;;;18.20;96.60;;;;;;4992621;28;20041;-77
2022/11/03 01:08:30;;;;;;;49.13;34.65;;;18.20;96.80;;;;;;4994502;28;20493;-77
2022/11/03 01:13:47;;;;;;;54.80;34.65;;;18.10;96.90;;;;;;4994151;28;20112;-76
2022/11/03 01:16:12;;;;;;;51.90;34.35;;;18.00;96.90;;;;;;4993698;28;20479;-77
2022/11/03 01:18:38;;;;;;;51.42;34.50;;;18.10;97.00;;;;;;4992811;28;20438;-77
2022/11/03 01:21:04;;;;;;;53.53;35.83;;;18.10;97.10;;;;;;4993503;28;20471;-77
2022/11/03 01:23:29;;;;;;;48.65;33.50;;;18.10;97.10;;;;;;4994267;28;20037;-77
2022/11/03 01:25:55;;;;;;;56.58;35.13;;;18.20;97.10;;;;;;4993802;28;20378;-77
2022/11/03 01:28:20;;;;;;;54.03;35.38;;;18.20;96.90;;;;;;4993630;28;20383;-77
2022/11/03 01:30:46;;;;;;;48.47;33.28;;;18.20;96.80;;;;;;4992696;28;20410;-78
2022/11/03 01:33:12;;;;;;;51.83;34.15;;;18.20;96.80;;;;;;4993323;28;20054;-77
2022/11/03 01:35:37;;;;;;;52.88;33.33;;;18.10;96.90;;;;;;4992885;28;20058;-77
2022/11/03 01:38:03;;;;;;;52.97;37.33;;;18.10;96.90;;;;;;4993619;28;20467;-77
2022/11/03 01:40:29;;;;;;;54.38;34.05;;;18.10;96.90;;;;;;4994562;28;20034;-77
2022/11/03 01:43:13;;;;;;;68.45;39.17;;;18.00;96.90;;;;;;4993615;28;20073;-77
2022/11/03 01:45:38;;;;;;;51.97;33.63;;;18.00;96.90;;;;;;4994246;28;20443;-77
2022/11/03 01:48:04;;;;;;;51.38;33.97;;;18.00;97.00;;;;;;4994278;28;20080;-77
2022/11/03 01:50:30;;;;;;;59.40;38.53;;;17.90;97.10;;;;;;4992277;28;21943;-77
2022/11/03 01:52:57;;;;;;;55.33;32.72;;;17.90;97.10;;;;;;4994028;28;20050;-76
2022/11/03 01:55:31;;;;;;;46.08;31.27;;;17.90;97.20;;;;;;4991238;28;20483;-77
2022/11/03 01:58:22;;;;;;;49.40;32.85;;;17.90;97.20;;;;;;4985479;28;20031;-76
2022/11/03 02:00:52;;;;;;;50.13;33.38;;;18.00;97.30;;;;;;4985420;28;20053;-86
2022/11/03 02:03:20;;;;;;;47.40;31.17;;;17.90;97.10;;;;;;4993815;28;20053;-87
2022/11/03 02:05:47;;;;;;;48.72;33.90;;;17.90;97.10;;;;;;4993309;28;20022;-86
2022/11/03 02:08:50;;;;;;;46.92;32.67;;;17.90;97.10;;;;;;4993516;28;20042;-86
2022/11/03 02:14:00;;;;;;;49.35;32.80;;;17.90;97.10;;;;;;4991808;28;20041;-87
2022/11/03 02:16:29;;;;;;;55.53;34.50;;;17.90;97.20;;;;;;4992461;28;20022;-87
2022/11/03 02:18:57;;;;;;;46.10;30.13;;;17.90;97.10;;;;;;4994947;28;20041;-86
2022/11/03 02:21:34;;;;;;;46.17;31.40;;;17.90;97.10;;;;;;4993045;28;20018;-87
2022/11/03 02:24:20;;;;;;;47.50;29.88;;;17.90;97.10;;;;;;4993821;28;20031;-87
2022/11/03 02:26:49;;;;;;;53.40;33.85;;;17.80;97.20;;;;;;4951996;28;20483;-87
2022/11/03 02:29:15;;;;;;;47.90;31.70;;;17.80;97.20;;;;;;4986215;28;20183;-87
2022/11/03 02:31:47;;;;;;;47.60;33.05;;;17.80;97.20;;;;;;4991137;28;20566;-87
2022/11/03 02:34:30;;;;;;;48.33;32.55;;;17.80;97.30;;;;;;4993059;28;20432;-87
2022/11/03 02:37:06;;;;;;;49.42;31.52;;;17.80;97.20;;;;;;4992334;28;20137;-86
2022/11/03 02:39:40;;;;;;;43.35;30.38;;;17.80;97.20;;;;;;4992855;28;20034;-86
2022/11/03 02:42:07;;;;;;;46.38;31.45;;;17.80;97.20;;;;;;4992168;28;20030;-85
2022/11/03 02:44:34;;;;;;;45.25;30.88;;;17.80;97.30;;;;;;4990323;28;20041;-85
2022/11/03 02:47:06;;;;;;;45.03;30.92;;;17.80;97.20;;;;;;4992515;28;20030;-86
2022/11/03 02:49:38;;;;;;;43.25;30.17;;;17.90;97.20;;;;;;4993016;28;20042;-85
2022/11/03 02:52:05;;;;;;;48.65;32.08;;;17.80;97.10;;;;;;4991836;28;20034;-85
2022/11/03 02:54:37;;;;;;;47.28;31.42;;;17.80;97.10;;;;;;4987166;28;20034;-86
2022/11/03 02:57:15;;;;;;;47.70;31.50;;;17.80;97.10;;;;;;4992422;28;20121;-86
2022/11/03 03:00:05;;;;;;;47.67;30.95;;;17.90;97.10;;;;;;4992988;28;20449;-86
2022/11/03 03:03:00;;;;;;;43.28;30.00;;;17.80;97.00;;;;;;4992771;28;20054;-86
2022/11/03 03:05:30;;;;;;;42.03;28.90;;;17.80;97.00;;;;;;4992351;28;20041;-86
2022/11/03 03:08:00;;;;;;;;;;;17.80;97.10;;;;;;4991699;28;20034;-86
2022/11/03 03:10:32;;;;;;;43.57;28.13;;;17.80;97.20;;;;;;4992396;28;19910;-87
2022/11/03 03:12:58;;;;;;;44.38;28.85;;;17.80;97.30;;;;;;4990049;28;20280;-86
2022/11/03 03:16:10;;;;;;;50.20;30.88;;;17.70;97.30;;;;;;4991344;28;20095;-85
2022/11/03 03:18:51;;;;;;;45.92;29.90;;;17.80;97.50;;;;;;4983878;28;20078;-84
2022/11/03 03:21:22;;;;;;;45.55;30.55;;;17.70;97.20;;;;;;4991948;28;20368;-85
2022/11/03 03:24:20;;;;;;;46.72;30.92;;;17.70;97.20;;;;;;4991950;28;20030;-85
2022/11/03 03:26:48;;;;;;;42.25;29.30;;;17.70;97.30;;;;;;4988726;28;20026;-84
2022/11/03 03:29:16;;;;;;;47.15;30.35;;;17.70;97.40;;;;;;4996227;28;20448;-84
2022/11/03 03:31:48;;;;;;;45.25;30.60;;;17.70;97.30;;;;;;4995732;28;20038;-86
2022/11/03 03:34:19;;;;;;;56.17;32.17;;;17.70;97.20;;;;;;4997320;28;20487;-82
2022/11/03 03:36:48;;;;;;;45.00;28.52;;;17.70;97.20;;;;;;5012419;28;20037;-84
2022/11/03 03:39:17;;;;;;;44.17;28.88;;;17.60;97.30;;;;;;4997025;28;20058;-84
2022/11/03 03:41:45;;;;;;;44.95;30.30;;;17.60;97.40;;;;;;4995809;28;20430;-87
2022/11/03 03:44:12;;;;;;;44.90;29.35;;;17.60;97.50;;;;;;4993916;28;20037;-87
2022/11/03 03:46:49;;;;;;;48.28;29.38;;;17.60;97.40;;;;;;4996810;28;20058;-88
2022/11/03 03:49:15;;;;;;;43.40;28.10;;;17.60;97.30;;;;;;4996595;28;20049;-86
2022/11/03 03:51:42;;;;;;;45.53;30.38;;;17.60;97.30;;;;;;4995719;28;20027;-86
2022/11/03 03:54:08;;;;;;;41.10;30.05;;;17.60;97.30;;;;;;4995253;28;20034;-85
2022/11/03 03:56:47;;;;;;;44.13;30.25;;;17.60;97.30;;;;;;4996099;28;20022;-79
2022/11/03 03:59:13;;;;;;;48.47;29.97;;;17.60;97.20;;;;;;4996088;28;20035;-79
2022/11/03 04:01:39;;;;;;;49.50;31.92;;;17.60;97.30;;;;;;4996164;28;20034;-79
2022/11/03 04:04:04;;;;;;;44.80;30.75;;;17.60;97.30;;;;;;4995753;28;20022;-79
2022/11/03 04:06:30;;;;;;;47.55;33.72;;;17.60;97.30;;;;;;4992555;28;20026;-78
2022/11/03 04:08:56;;;;;;;47.97;32.85;;;17.70;97.30;;;;;;4995664;28;20038;-79
2022/11/03 04:22:21;;;;;;;71.18;40.55;;;17.60;97.30;;;;;;4995086;28;20073;-79
2022/11/03 04:24:49;;;;;;;56.67;37.63;;;17.50;97.30;;;;;;4995213;28;20117;-78
2022/11/03 04:27:17;;;;;;;52.67;35.38;;;17.50;97.40;;;;;;4992932;28;20468;-77
2022/11/03 04:29:43;;;;;;;57.90;38.13;;;17.50;97.40;;;;;;4995903;28;20040;-84
2022/11/03 04:32:16;;;;;;;56.22;37.00;;;17.40;97.50;;;;;;4995495;28;20058;-84
2022/11/03 04:34:45;;;;;;;61.45;39.67;;;17.40;97.50;;;;;;4995563;28;20026;-87
2022/11/03 04:37:15;;;;;;;55.10;36.78;;;17.40;97.50;;;;;;4995865;28;20077;-86
2022/11/03 04:39:41;;;;;;;56.50;36.60;;;17.40;97.60;;;;;;4996681;28;20455;-86
2022/11/03 04:42:16;;;;;;;57.33;37.38;;;17.40;97.60;;;;;;5002117;28;20033;-86
2022/11/03 04:44:42;;;;;;;54.38;36.55;;;17.50;97.70;;;;;;4995782;28;20027;-85
2022/11/03 04:47:11;;;;;;;52.60;37.80;;;17.50;97.70;;;;;;4994693;28;20434;-87
2022/11/03 04:49:37;;;;;;;54.17;36.27;;;17.60;97.70;;;;;;4994975;28;20033;-86
2022/11/03 04:52:10;;;;;;;52.75;35.90;;;17.50;97.50;;;;;;4991542;28;20142;-87
2022/11/03 04:54:36;;;;;;;56.35;35.15;;;17.60;97.50;;;;;;4981191;28;20065;-87
2022/11/03 04:57:10;;;;;;;59.00;38.03;;;17.60;97.40;;;;;;4994307;28;20065;-81
2022/11/03 04:59:36;;;;;;;54.60;35.22;;;17.60;97.40;;;;;;4994290;28;20031;-81
2022/11/03 05:02:08;;;;;;;59.47;38.58;;;17.50;97.30;;;;;;4994080;28;20033;-80
2022/11/03 05:04:33;;;;;;;59.97;39.47;;;17.50;97.40;;;;;;4990585;28;20062;-80
2022/11/03 05:06:59;;;;;;;61.67;39.10;;;17.50;97.50;;;;;;4993823;28;20183;-80
2022/11/03 05:09:30;;;;;;;61.33;38.42;;;17.50;97.50;;;;;;4994547;28;20019;-80
2022/11/03 05:11:55;;;;;;;58.40;37.97;;;17.50;97.50;;;;;;5000732;28;20107;-81
2022/11/03 05:14:24;;;;;;;58.08;38.22;;;17.50;97.50;;;;;;4996122;28;20050;-81
2022/11/03 05:16:54;;;;;;;59.50;37.13;;;17.50;97.40;;;;;;4996152;28;20028;-80
2022/11/03 05:19:25;;;;;;;;;;;17.40;97.40;;;;;;4987257;28;20022;-78
2022/11/03 05:21:51;;;;;;;;;;;17.40;97.40;;;;;;4993174;28;19929;-78
2022/11/03 05:24:19;;;;;;;50.70;32.97;;;17.40;97.40;;;;;;4996366;28;19968;-79
2022/11/03 05:26:46;;;;;;;56.08;36.33;;;17.40;97.50;;;;;;4995990;28;20034;-78
2022/11/03 05:29:18;;;;;;;57.90;36.88;;;17.40;97.50;;;;;;4995527;28;20507;-78
2022/11/03 05:31:46;;;;;;;54.20;36.08;;;17.40;97.40;;;;;;4994527;28;20022;-77
2022/11/03 05:34:29;;;;;;;52.85;34.65;;;17.40;97.30;;;;;;4985659;28;20026;-79
2022/11/03 05:37:16;;;;;;;55.67;34.40;;;17.40;97.40;;;;;;4995571;28;20030;-79
2022/11/03 05:39:45;;;;;;;53.80;34.85;;;17.30;97.40;;;;;;4981150;28;20082;-78
2022/11/03 05:42:30;;;;;;;55.65;36.08;;;17.40;97.70;;;;;;4994841;28;20074;-79
2022/11/03 05:44:57;;;;;;;50.25;34.33;;;17.40;97.40;;;;;;4993009;28;20088;-79
2022/11/03 05:47:24;;;;;;;49.33;33.95;;;17.40;97.50;;;;;;4992694;28;20285;-78
2022/11/03 05:49:53;;;;;;;53.47;33.47;;;17.40;97.40;;;;;;4987684;28;20038;-80
2022/11/03 05:52:23;;;;;;;49.92;33.67;;;17.50;97.40;;;;;;4989302;28;20038;-78
2022/11/03 05:54:49;;;;;;;49.88;32.58;;;17.50;97.40;;;;;;4993828;28;20075;-79
2022/11/03 05:57:17;;;;;;;47.25;32.03;;;17.50;97.40;;;;;;4993503;28;20033;-77
2022/11/03 05:59:44;;;;;;;49.17;32.47;;;17.50;97.30;;;;;;4994734;28;20034;-80
2022/11/03 06:02:37;;;;;;;46.30;32.58;;;17.50;97.30;;;;;;4994135;28;20027;-77
2022/11/03 06:05:14;;;;;;;48.03;32.42;;;17.50;97.40;;;;;;4990619;28;20505;-75
2022/11/03 06:07:40;;;;;;;51.75;32.65;;;17.60;97.50;;;;;;4994369;28;20031;-75
2022/11/03 06:10:22;;;;;;;49.88;33.65;;;17.50;97.40;;;;;;4997190;28;20526;-77
2022/11/03 06:12:48;;;;;;;49.83;33.72;;;17.70;97.40;;;;;;5002785;28;20208;-76
2022/11/03 06:15:49;;;;;;;51.88;34.97;;;17.70;97.30;;;;;;4992421;28;20038;-85
2022/11/03 06:18:20;;;;;;;51.25;33.13;;;17.70;97.20;;;;;;4983794;28;20030;-82
2022/11/03 06:20:55;;;;;;;51.08;33.33;;;17.80;97.10;;;;;;4990282;28;20023;-82
2022/11/03 06:23:22;;;;;;;51.42;33.58;;;17.80;97.00;;;;;;4991077;28;20124;-81
2022/11/03 06:25:50;;;;;;;51.58;33.75;;;17.80;97.00;;;;;;4993618;28;20034;-75
2022/11/03 06:28:21;;;;;;;57.90;35.83;;;17.80;97.00;;;;;;4992943;28;20030;-81
2022/11/03 06:30:54;;;;;;;51.08;34.60;;;17.80;97.00;;;;;;4988881;28;20042;-78
2022/11/03 06:33:29;;;;;;;44.60;31.50;;;17.70;96.70;;;;;;4986029;28;20414;-82
2022/11/03 06:36:00;;;;;;;50.05;31.98;;;17.70;96.80;;;;;;4991954;28;20121;-83
2022/11/03 06:38:30;;;;;;;46.15;32.05;;;17.70;96.90;;;;;;4981272;28;20038;-83
2022/11/03 06:40:57;;;;;;;51.70;33.92;;;17.70;96.90;;;;;;4992198;28;20031;-76
2022/11/03 06:43:42;;;;;;;46.65;31.75;;;17.70;97.10;;;;;;4992199;28;20117;-77
2022/11/03 06:46:17;;;;;;;41.55;28.40;;;17.70;97.10;;;;;;4989496;28;20105;-82
2022/11/03 06:48:43;;;;;;;40.63;30.20;;;17.70;97.10;;;;;;4988437;28;21342;-82
2022/11/03 06:51:20;;;;;;;48.55;31.73;;;17.80;97.10;;;;;;4990958;28;20030;-81
2022/11/03 06:53:46;;;;;;;47.97;31.58;;;17.80;97.00;;;;;;4993600;28;20044;-81
2022/11/03 06:56:17;;;;;;;48.53;33.40;;;17.80;97.00;;;;;;4993243;28;20154;-81
2022/11/03 06:58:47;;;;;;;49.03;32.92;;;17.90;97.00;;;;;;5008244;28;20044;-84
2022/11/03 07:01:20;;;;;;;53.73;35.33;;;17.90;96.90;;;;;;4989527;28;20061;-77
2022/11/03 07:03:46;;;;;;;50.15;32.35;;;18.00;96.80;;;;;;4992304;28;20022;-82
2022/11/03 07:06:20;;;;;;;49.60;33.15;;;18.00;96.70;;;;;;4987597;28;20046;-84
2022/11/03 07:08:54;;;;;;;51.25;32.75;;;18.00;96.80;;;;;;4975349;28;20471;-85
2022/11/03 07:11:19;;;;;;;47.60;32.00;;;18.00;96.80;;;;;;4993032;28;20037;-85
2022/11/03 07:13:48;;;;;;;52.92;33.50;;;18.10;96.90;;;;;;4994987;28;20026;-85
2022/11/03 07:16:36;;;;;;;53.20;33.70;;;18.10;96.90;;;;;;4990450;28;20088;-82
2022/11/03 07:19:21;;;;;;;46.90;33.28;;;18.20;96.90;;;;;;4988378;28;20045;-89
2022/11/03 07:21:53;;;;;;;52.58;34.10;;;18.20;96.80;;;;;;4992885;28;20105;-88
2022/11/03 07:24:29;;;;;;;58.50;36.78;;;18.20;96.70;;;;;;4994325;28;20032;-79
2022/11/03 07:27:22;;;;;;;55.83;37.13;;;18.20;96.70;;;;;;4990635;28;20105;-80
2022/11/03 07:29:51;;;;;;;51.88;35.72;;;18.20;96.70;;;;;;4993815;28;20093;-80
2022/11/03 07:32:18;;;;;;;55.78;36.72;;;18.20;96.70;;;;;;4991699;28;20101;-81
2022/11/03 07:34:46;;;;;;;58.70;38.53;;;18.30;96.60;;;;;;4990329;28;20031;-80
2022/11/03 07:37:19;;;;;;;63.65;38.33;;;18.30;96.50;;;;;;4992066;28;20034;-79
2022/11/03 07:39:45;;;;;;;57.13;37.95;;;18.30;96.50;;;;;;4990863;28;20379;-81
2022/11/03 07:42:23;;;;;;;60.80;37.80;;;18.40;96.50;;;;;;4993175;28;20097;-80
2022/11/03 07:44:50;;;;;;;60.22;37.30;;;18.40;96.30;;;;;;4992907;28;20033;-80
2022/11/03 07:47:20;;;;;;;61.10;38.00;;;18.30;96.10;;;;;;4997794;28;20031;-80
2022/11/03 07:49:47;;;;;;;58.08;35.45;;;18.30;95.80;;;;;;5007445;28;20022;-79
2022/11/03 07:52:17;;;;;;;56.83;35.75;;;18.20;96.00;;;;;;5013010;28;20039;-79
2022/11/03 07:54:43;;;;;;;61.28;39.30;;;18.20;96.10;;;;;;5014182;28;20021;-90
2022/11/03 07:57:25;;;;;;;57.90;37.42;;;18.20;96.10;;;;;;4990708;28;20490;-90
2022/11/03 07:59:55;;;;;;;45.35;30.98;;;18.20;96.20;;;;;;4980416;28;20073;-90
2022/11/03 08:02:31;;;;;;;46.95;32.50;;;18.20;96.40;;;;;;4979653;28;20102;-89
2022/11/03 08:04:57;;;;;;;48.10;32.08;;;18.10;96.40;;;;;;4977895;28;20023;-89
2022/11/03 08:07:23;;;;;;;49.40;32.85;;;18.20;96.50;;;;;;4977657;28;20122;-89
2022/11/03 08:09:50;;;;;;;43.00;29.38;;;18.20;96.50;;;;;;4980799;28;20031;-89
2022/11/03 08:12:15;;;;;;;43.58;30.73;;;18.20;96.60;;;;;;4993780;28;20073;-89
2022/11/03 08:14:41;;;;;;;43.15;31.00;;;18.20;96.60;;;;;;4992768;28;20171;-89
2022/11/03 08:17:07;;;;;;;51.65;31.77;;;18.30;96.60;;;;;;4997575;28;20372;-89
2022/11/03 08:19:32;;;;;;;49.00;32.95;;;18.30;96.50;;;;;;4982638;28;20031;-88
2022/11/03 08:21:58;;;;;;;44.95;30.80;;;18.30;96.40;;;;;;4979958;28;20513;-89
2022/11/03 08:24:23;;;;;;;50.97;33.13;;;18.40;96.40;;;;;;4981373;28;20074;-89
2022/11/03 08:26:49;;;;;;;55.38;34.95;;;18.30;96.40;;;;;;4997754;28;20031;-89
2022/11/03 08:29:16;;;;;;;45.38;31.92;;;18.40;96.50;;;;;;4996290;28;20026;-89
2022/11/03 08:31:43;;;;;;;45.80;31.35;;;18.40;96.30;;;;;;4999450;28;20038;-90
2022/11/03 08:34:09;;;;;;;50.08;32.90;;;18.40;96.30;;;;;;4996680;28;20065;-89
2022/11/03 08:36:36;;;;;;;49.83;33.45;;;18.40;96.30;;;;;;4999211;28;20320;-89
2022/11/03 08:39:02;;;;;;;52.47;35.00;;;18.40;96.30;;;;;;4998689;28;20079;-89
2022/11/03 08:41:28;;;;;;;46.80;33.33;;;18.50;96.30;;;;;;4997179;28;20034;-88
2022/11/03 08:43:54;;;;;;;48.65;33.17;;;18.50;96.30;;;;;;4995934;28;20026;-89
2022/11/03 08:46:20;;;;;;;51.05;33.45;;;18.50;96.20;;;;;;5004402;28;20026;-88
2022/11/03 08:48:46;;;;;;;62.47;38.78;;;18.50;96.30;;;;;;5004668;28;20467;-89
2022/11/03 08:51:13;;;;;;;50.85;33.83;;;18.50;96.00;;;;;;5007595;28;20105;-89
2022/11/03 08:53:39;;;;;;;53.92;35.75;;;18.60;96.10;;;;;;5001967;28;20501;-89
2022/11/03 08:56:06;;;;;;;50.78;33.88;;;18.60;95.90;;;;;;4978314;28;20042;-89
2022/11/03 08:58:31;;;;;;;52.53;35.70;;;18.60;96.10;;;;;;4980392;28;20356;-90
2022/11/03 09:00:57;;;;;;;50.10;33.10;;;18.60;96.30;;;;;;4981683;28;20038;-89
2022/11/03 09:03:23;;;;;;;56.85;36.55;;;18.60;96.10;;;;;;4999552;28;20439;-89
2022/11/03 09:05:49;;;;;;;57.58;36.45;;;18.70;96.10;;;;;;4998563;28;20105;-88
2022/11/03 09:08:14;;;;;;;53.08;33.67;;;18.60;96.00;;;;;;4981297;28;20110;-89
2022/11/03 09:10:40;;;;;;;57.75;35.90;;;18.60;96.00;;;;;;4983333;28;20070;-89
2022/11/03 09:13:06;;;;;;;57.90;37.15;;;18.70;96.10;;;;;;4980129;28;20049;-89
2022/11/03 09:15:32;;;;;;;58.42;37.08;;;18.80;96.20;;;;;;4980724;28;20038;-88
2022/11/03 09:17:57;;;;;;;66.88;39.78;;;18.90;96.10;;;;;;4989349;28;20058;-90
2022/11/03 09:20:23;;;;;;;62.17;39.65;;;19.00;96.10;;;;;;5000160;28;20034;-87
2022/11/03 09:22:49;;;;;;;72.53;42.85;;;19.10;95.90;;;;;;4992925;28;20031;-86
2022/11/03 09:25:15;;;;;;;68.78;43.50;;;19.10;95.70;;;;;;4983112;28;20022;-90
2022/11/03 09:27:40;;;;;;;77.10;44.53;;;19.10;95.60;;;;;;5013042;28;20057;-81
2022/11/03 09:30:07;;;;;;;71.75;45.80;;;19.10;95.60;;;;;;4994109;28;20034;-88
2022/11/03 09:32:33;;;;;;;76.47;44.13;;;19.20;95.50;;;;;;4985527;28;20866;-88
2022/11/03 09:34:59;;;;;;;78.80;47.00;;;19.10;95.60;;;;;;4997535;28;20034;-89
2022/11/03 09:37:25;;;;;;;66.88;42.53;;;19.20;95.60;;;;;;4998158;28;20394;-88
2022/11/03 09:39:50;;;;;;;73.05;46.42;;;19.20;95.50;;;;;;4990710;28;20038;-88
2022/11/03 09:42:17;;;;;;;86.93;50.33;;;19.20;95.50;;;;;;4992679;28;20350;-79
2022/11/03 09:44:45;;;;;;;68.53;43.03;;;19.20;95.30;;;;;;4991601;28;20033;-79
2022/11/03 09:47:28;;;;;;;74.57;46.03;;;19.10;95.40;;;;;;4988990;28;20058;-80
2022/11/03 09:49:58;;;;;;;75.70;46.15;;;19.10;95.50;;;;;;4989601;28;20022;-80
2022/11/03 09:52:27;;;;;;;76.55;43.65;;;19.00;95.50;;;;;;4992365;28;20030;-80
2022/11/03 09:54:58;;;;;;;75.20;45.88;;;19.00;95.60;;;;;;4994549;28;20058;-82
2022/11/03 09:57:26;;;;;;;75.72;45.53;;;19.00;95.70;;;;;;4995750;28;20029;-79
2022/11/03 09:59:53;;;;;;;75.65;46.42;;;19.00;95.70;;;;;;4993309;28;20124;-78
2022/11/03 10:02:24;;;;;;;76.45;47.13;;;19.10;95.80;;;;;;4979258;28;20026;-79
2022/11/03 10:04:51;;;;;;;72.35;44.08;;;19.10;95.70;;;;;;4994680;28;20034;-88
2022/11/03 10:07:18;;;;;;;73.45;46.08;;;19.10;95.70;;;;;;4995737;28;20378;-82
2022/11/03 10:09:47;;;;;;;69.85;44.95;;;20.00;95.90;;;;;;4985315;28;20039;-80
2022/11/03 10:12:13;;;;;;;76.75;46.67;;;19.20;95.70;;;;;;4995314;28;20038;-81
2022/11/03 10:14:41;;;;;;;72.35;45.95;;;19.20;95.60;;;;;;4979412;28;20384;-92
2022/11/03 10:17:13;;;;;;;85.78;48.53;;;19.30;95.50;;;;;;4985347;28;20093;-91
2022/11/03 10:19:41;;;;;;;81.90;47.15;;;19.20;95.60;;;;;;4987052;28;20054;-90
2022/11/03 10:22:06;;;;;;;81.63;49.53;;;19.30;95.50;;;;;;4986954;28;20015;-87
2022/11/03 10:24:32;;;;;;;97.22;53.08;;;19.30;95.50;;;;;;4996827;28;20034;-87
2022/11/03 10:26:58;;;;;;;76.13;47.17;;;19.20;95.10;;;;;;4995417;28;20030;-90
2022/11/03 10:29:27;;;;;;;80.50;48.58;;;19.20;95.20;;;;;;4996285;28;20088;-88
2022/11/03 10:31:57;;;;;;;77.37;46.53;;;19.20;95.30;;;;;;4992108;28;20115;-88
2022/11/03 10:34:33;;;;;;;84.90;47.05;;;19.20;95.30;;;;;;4984900;28;20343;-78
2022/11/03 10:37:16;;;;;;;80.82;46.80;;;19.20;95.40;;;;;;4986123;28;20042;-79
2022/11/03 10:39:41;;;;;;;71.22;44.72;;;19.30;95.50;;;;;;4992250;28;20045;-79
2022/11/03 10:42:17;;;;;;;82.40;50.13;;;19.40;95.50;;;;;;4990230;28;20027;-82
2022/11/03 10:44:42;;;;;;;83.25;49.10;;;19.50;95.50;;;;;;4979825;28;20055;-82
2022/11/03 10:47:24;;;;;;;85.68;49.95;;;19.60;95.20;;;;;;4986453;28;20054;-83
2022/11/03 10:49:50;;;;;;;80.43;48.90;;;19.70;95.20;;;;;;4987876;28;20030;-84
2022/11/03 10:52:21;;;;;;;77.65;47.30;;;19.80;95.00;;;;;;4995828;28;20544;-82
2022/11/03 10:54:48;;;;;;;77.05;48.85;;;19.90;94.90;;;;;;4990258;28;20149;-89
2022/11/03 10:57:15;;;;;;;87.55;51.60;;;19.90;94.70;;;;;;4995195;28;20021;-91
2022/11/03 10:59:42;;;;;;;80.15;48.67;;;19.90;94.60;;;;;;5011908;28;20026;-84
2022/11/03 11:02:20;;;;;;;89.95;52.63;;;19.90;94.30;;;;;;4996762;28;20026;-84
2022/11/03 11:04:55;;;;;;;76.13;45.78;;;19.90;94.20;;;;;;4993183;28;20026;-85
2022/11/03 11:07:31;;;;;;;82.70;50.50;;;19.80;94.10;;;;;;4978483;28;20113;-93
2022/11/03 11:10:21;;;;;;;104.97;56.97;;;19.90;94.30;;;;;;4994263;28;20057;-88
2022/11/03 11:13:22;;;;;;;79.85;45.55;;;19.90;94.10;;;;;;4995691;28;20038;-91
2022/11/03 11:15:53;;;;;;;73.85;44.97;;;20.00;94.10;;;;;;5010677;28;20030;-91
2022/11/03 11:18:27;;;;;;;75.75;46.10;;;20.00;94.10;;;;;;4989952;28;20475;-86
2022/11/03 11:21:17;;;;;;;79.65;48.15;;;20.00;94.00;;;;;;4996903;28;20037;-91
2022/11/03 11:23:45;;;;;;;74.57;45.97;;;20.10;94.10;;;;;;4963696;28;20129;-84
2022/11/03 11:26:28;;;;;;;73.40;46.25;;;20.30;94.20;;;;;;4984900;28;20502;-84
2022/11/03 11:29:10;;;;;;;80.32;47.30;;;20.70;94.00;;;;;;4979130;28;20042;-83
2022/11/03 11:31:37;;;;;;;76.40;45.60;;;21.00;93.30;;;;;;4991706;28;20037;-83
2022/11/03 11:34:09;;;;;;;75.40;45.67;;;21.40;93.00;;;;;;4983185;28;20054;-89
2022/11/03 11:36:38;;;;;;;71.80;45.58;;;21.90;91.70;;;;;;4984767;28;20030;-84
2022/11/03 11:39:26;;;;;;;76.68;44.90;;;22.20;90.70;;;;;;4991122;28;20046;-90
2022/11/03 11:42:12;;;;;;;71.07;44.05;;;22.40;91.00;;;;;;4988563;28;20106;-83
2022/11/03 11:45:02;;;;;;;67.00;44.35;;;22.70;89.10;;;;;;4989610;28;20031;-90
2022/11/03 11:47:39;;;;;;;73.25;45.22;;;22.80;88.80;;;;;;4999792;28;20479;-90
2022/11/03 11:50:05;;;;;;;65.97;42.05;;;22.40;87.00;;;;;;5014220;28;20026;-90
2022/11/03 11:52:51;;;;;;;70.80;43.95;;;22.20;89.40;;;;;;5020068;28;20116;-90
2022/11/03 11:55:23;;;;;;;63.70;38.78;;;22.10;87.40;;;;;;4996090;28;20030;-88
2022/11/03 11:57:50;;;;;;;65.60;41.75;;;22.10;89.70;;;;;;4996246;28;20042;-86
2022/11/03 12:00:27;;;;;;;61.60;38.53;;;22.30;89.50;;;;;;4990141;28;20041;-88
2022/11/03 12:02:53;;;;;;;60.30;38.20;;;22.50;88.70;;;;;;4991085;28;20063;-89
2022/11/03 12:05:22;;;;;;;72.28;41.25;;;22.50;88.50;;;;;;4988176;28;20033;-88
2022/11/03 12:07:48;;;;;;;70.57;40.05;;;22.50;88.30;;;;;;4994110;28;20105;-88
2022/11/03 12:10:24;;;;;;;59.83;38.95;;;22.50;88.60;;;;;;4997251;28;20026;-84
2022/11/03 12:12:51;;;;;;;63.53;40.28;;;22.70;88.30;;;;;;4992792;28;20085;-86
2022/11/03 12:15:51;;;;;;;63.03;39.22;;;22.70;86.60;;;;;;4997632;28;20091;-87
2022/11/03 12:18:38;;;;;;;61.60;38.33;;;22.90;87.40;;;;;;4987714;28;20113;-86
2022/11/03 12:21:06;;;;;;;57.08;37.63;;;23.50;87.00;;;;;;4986935;28;20521;-89
2022/11/03 12:23:34;;;;;;;72.55;43.30;;;23.90;86.70;;;;;;4985344;28;20030;-83
2022/11/03 12:26:00;;;;;;;59.95;39.85;;;24.30;85.20;;;;;;4995048;28;20030;-83
2022/11/03 12:28:34;;;;;;;60.55;38.60;;;24.40;83.10;;;;;;4994082;28;20102;-85
2022/11/03 12:31:01;;;;;;;61.67;39.03;;;24.70;83.30;;;;;;4989599;28;20427;-92
2022/11/03 12:33:27;;;;;;;61.22;38.20;;;24.80;82.80;;;;;;4988172;28;20046;-82
2022/11/03 12:36:00;;;;;;;55.42;35.50;;;24.80;81.50;;;;;;4993640;28;20035;-87
2022/11/03 12:38:26;;;;;;;54.83;36.90;;;24.70;81.00;;;;;;4999015;28;20034;-87
2022/11/03 12:40:55;;;;;;;55.20;37.75;;;24.50;80.90;;;;;;4994013;28;20026;-91
2022/11/03 12:43:20;;;;;;;56.10;34.60;;;24.20;81.00;;;;;;4984338;28;20392;-88
2022/11/03 12:45:46;;;;;;;52.88;35.85;;;23.90;81.20;;;;;;4991368;28;20027;-83
2022/11/03 12:48:12;;;;;;;56.65;36.25;;;23.70;81.60;;;;;;4994179;28;20026;-83
2022/11/03 12:50:39;;;;;;;48.95;33.85;;;23.40;81.90;;;;;;4982290;28;20073;-84
2022/11/03 12:53:05;;;;;;;53.53;33.33;;;23.10;82.00;;;;;;4987670;28;20026;-92
2022/11/03 12:55:32;;;;;;;48.50;31.45;;;22.90;82.90;;;;;;4989339;28;20033;-88
2022/11/03 12:57:58;;;;;;;45.08;30.27;;;22.70;83.30;;;;;;4992075;28;20038;-85
2022/11/03 13:00:24;;;;;;;56.65;31.60;;;22.70;83.90;;;;;;4993337;28;20197;-84
2022/11/03 13:02:50;;;;;;;62.22;37.22;;;22.60;84.30;;;;;;4982239;28;20031;-90
2022/11/03 13:05:15;;;;;;;47.67;30.42;;;22.50;84.70;;;;;;4985905;28;20022;-88